Flight Track Log - Related Links

Times and Time Zones

All times are in EDT time to prevent confusion due to time zone crossing. See the EJA929 flight status page for this flight to view local times or setup timezone preferences in your user account.

Time Position Orientation Groundspeed Altitude Reporting Facility
EDT Latitude Longitude Course Direction KTS MPH feet Rate Location/Type
Fri 03:34:11 PM 33.4333 -111.9833 90° East 194 223 1,900  Level Phoenix TRACON
Fri 03:35:12 PM 33.4333 -111.9167 90° East 225 259 4,700 2,430 Climbing Phoenix TRACON
Fri 03:36:12 PM 33.4667 -111.8500 59° Northeast 285 328 6,800 2,421 Climbing Phoenix TRACON
Fri 03:37:06 PM 33.5333 -111.8667 348° North 303 349 9,300 2,016 Climbing Phoenix TRACON
Fri 03:38:17 PM 33.6178 -111.9444 323° Northwest 330 380 11,000 1,579 Climbing Albuquerque Center
Fri 03:39:19 PM 33.7006 -112.0236 322° Northwest 373 429 12,800 1,694 Climbing Albuquerque Center
Fri 03:40:21 PM 33.7858 -112.1036 322° Northwest 384 442 14,500 1,645 Climbing Albuquerque Center
Fri 03:41:23 PM 33.8725 -112.1872 321° Northwest 394 453 16,200 1,548 Climbing Albuquerque Center
Fri 03:42:25 PM 33.9625 -112.2717 322° Northwest 404 465 17,700 1,610 Climbing Albuquerque Center
Fri 03:43:26 PM 34.0569 -112.3533 324° Northwest 415 478 19,500 1,659 Climbing Albuquerque Center
Fri 03:44:28 PM 34.1639 -112.4178 334° Northwest 426 490 21,100 1,694 Climbing Albuquerque Center
Fri 03:45:30 PM 34.2942 -112.4992 333° Northwest 436 502 23,000 1,694 Climbing Albuquerque Center
Fri 03:46:32 PM 34.4044 -112.5669 333° Northwest 442 509 24,600 1,500 Climbing Albuquerque Center
Fri 03:47:34 PM 34.4989 -112.6589 321° Northwest 449 517 26,100 1,500 Climbing Albuquerque Center
Fri 03:48:36 PM 34.5825 -112.7744 311° West 457 526 27,700 1,548 Climbing Albuquerque Center
Fri 03:49:38 PM 34.6667 -112.8908 311° West 460 529 29,300 1,854 Climbing Albuquerque Center
Fri 03:50:39 PM 34.7531 -113.0111 311° West 468 539 31,500 2,439 Climbing Albuquerque Center
Fri 03:51:41 PM 34.8539 -113.1536 311° West 465 535 34,300 2,177 Climbing Albuquerque Center
Fri 03:52:43 PM 34.9369 -113.2733 310° West 463 533 36,000 823 Climbing Albuquerque Center
Fri 03:53:45 PM 35.0119 -113.4086 304° West 476 548 36,000 97 Level Albuquerque Center
Fri 03:54:47 PM 35.0883 -113.5444 305° West 484 557 36,200 823 Climbing Albuquerque Center
Fri 03:55:49 PM 35.1622 -113.6781 304° West 478 550 37,700 1,452 Climbing Albuquerque Center
Fri 03:56:51 PM 35.2367 -113.8128 304° West 479 551 39,200 939 Climbing Albuquerque Center
Fri 03:58:16 PM 35.3500 -114.0153 304° West 486 559 40,000 327 Climbing Los Angeles Center
Fri 03:59:18 PM 35.4256 -114.1508 304° West 484 557 40,000  Level Los Angeles Center
Fri 04:00:20 PM 35.4992 -114.2872 304° West 479 551 40,000  Level Los Angeles Center
Fri 04:01:22 PM 35.5856 -114.4428 304° West 465 535 40,000  Level Los Angeles Center
Fri 04:02:36 PM 35.6561 -114.5722 304° West 459 528 40,000  Level Los Angeles Center
Fri 04:03:39 PM 35.7414 -114.7300 304° West 459 528 40,000  Level Los Angeles Center
Fri 04:04:41 PM 35.8117 -114.8611 303° West 460 529 40,000  Level Los Angeles Center
Fri 04:05:43 PM 35.8836 -114.9936 304° West 463 533 40,000  Level Los Angeles Center
Fri 04:06:45 PM 35.9553 -115.1275 304° West 466 536 40,000  Level Los Angeles Center
Fri 04:07:47 PM 36.0428 -115.2906 304° West 473 544 40,000  Level Los Angeles Center
Fri 04:08:50 PM 36.1142 -115.4250 303° West 468 539 40,000  Level Los Angeles Center
Fri 04:09:52 PM 36.1858 -115.5619 303° West 467 537 40,000  Level Los Angeles Center
Fri 04:10:54 PM 36.2592 -115.7036 303° West 470 541 40,000  Level Los Angeles Center
Fri 04:11:56 PM 36.3322 -115.8408 303° West 470 541 40,000  Level Los Angeles Center
Fri 04:12:58 PM 36.4008 -115.9717 303° West 467 537 40,000  Level Los Angeles Center
Fri 04:14:00 PM 36.4708 -116.1061 303° West 464 534 40,000  Level Los Angeles Center
Fri 04:15:02 PM 36.5553 -116.2689 303° West 466 536 40,000  Level Los Angeles Center
Fri 04:16:04 PM 36.6267 -116.4047 303° West 467 537 40,000 -480 Level Los Angeles Center
Fri 04:17:07 PM 36.6981 -116.5447 302° West 474 545 39,000 -960 Descending Los Angeles Center
Fri 04:18:09 PM 36.7717 -116.6889 303° West 485 558 38,000 -968 Descending Los Angeles Center
Fri 04:19:11 PM 36.8711 -116.8072 316° Northwest 499 574 37,000 -968 Descending Los Angeles Center
Fri 04:20:13 PM 36.9881 -116.9042 326° Northwest 503 579 36,000 -484 Descending Los Angeles Center
Fri 04:21:15 PM 37.1253 -117.0203 326° Northwest 498 573 36,000  Level Los Angeles Center
Fri 04:22:17 PM 37.2183 -117.1339 316° Northwest 471 542 36,000  Level Los Angeles Center
Fri 04:23:19 PM 37.2839 -117.2347 309° West 465 535 36,000 -144 Level Los Angeles Center
Fri 04:24:22 PM 37.3828 -117.3858 310° West 465 535 35,700 -624 Descending Los Angeles Center
Fri 04:25:24 PM 37.4667 -117.5147 309° West 472 543 34,700 -823 Descending Los Angeles Center
Fri 04:26:26 PM 37.5522 -117.6472 309° West 482 555 34,000 -339 Descending Los Angeles Center
Fri 04:27:28 PM 37.6372 -117.7794 309° West 483 556 34,000  Level Los Angeles Center
Fri 04:28:30 PM 37.7369 -117.9328 309° West 473 544 34,000  Level Los Angeles Center
Fri 04:29:32 PM 37.8200 -118.0636 309° West 473 544 34,000  Level Los Angeles Center
Fri 04:30:34 PM 37.9050 -118.1967 309° West 479 551 34,000 -201 Level Los Angeles Center
Fri 04:32:01 PM 38.0228 -118.3844 309° West 484 557 33,500 -604 Descending Oakland Center
Fri 04:33:03 PM 38.1075 -118.5197 309° West 488 562 32,500 -919 Descending Oakland Center
Fri 04:34:05 PM 38.1944 -118.6586 309° West 492 566 31,600 -919 Descending Oakland Center
Fri 04:35:07 PM 38.2797 -118.7947 309° West 492 566 30,600 -780 Descending Oakland Center
Fri 04:36:08 PM 38.3636 -118.9289 309° West 487 560 30,000 -293 Descending Oakland Center
Fri 04:37:10 PM 38.4619 -119.0878 308° West 476 548 30,000  Level Oakland Center
Fri 04:38:12 PM 38.5464 -119.2231 309° West 481 554 30,000  Level Oakland Center
Fri 04:39:13 PM 38.6286 -119.3592 308° West 482 555 30,000 -244 Level Oakland Center
Fri 04:40:15 PM 38.6903 -119.5033 299° West 469 540 29,500 -774 Descending Oakland Center
Fri 04:41:17 PM 38.7231 -119.6611 285° West 456 525 28,400 -1,024 Descending Oakland Center
Fri 04:42:18 PM 38.7544 -119.8150 285° West 462 532 27,400 -1,220 Descending Oakland Center
Fri 04:43:20 PM 38.7858 -119.9758 284° West 465 535 25,900 -1,610 Descending Oakland Center
Fri 04:44:21 PM 38.8242 -120.1631 285° West 457 526 24,100 -1,610 Descending Oakland Center
Fri 04:45:23 PM 38.8553 -120.3175 285° West 450 518 22,600 -1,463 Descending Oakland Center
Fri 04:46:24 PM 38.8869 -120.4714 285° West 448 516 21,100 -1,463 Descending Oakland Center
Fri 04:47:26 PM 38.9164 -120.6219 284° West 439 505 19,600 -1,645 Descending Oakland Center
Fri 04:48:28 PM 38.9453 -120.7686 284° West 428 493 17,700 -1,902 Descending Oakland Center
Fri 04:49:29 PM 38.9736 -120.9128 284° West 421 484 15,700 -1,951 Descending Oakland Center
Fri 04:50:31 PM 38.9781 -121.0522 272° West 405 466 13,700 -2,195 Descending Oakland Center
Fri 04:51:32 PM 38.9417 -121.1939 252° West 347 399 11,200 -2,732 Descending Oakland Center
Fri 04:52:34 PM 38.9322 -121.2933 263° West 289 333 8,100 -2,341 Descending Oakland Center
Fri 04:53:35 PM 38.9311 -121.3922 269° West 281 323 6,400 -1,561 Descending Oakland Center
Fri 04:54:37 PM 38.9319 -121.4867 271° West 269 310 4,900 -1,512 Descending Oakland Center
Fri 04:55:38 PM 38.8886 -121.5483 228° Southwest 244 281 3,300 -1,227 Descending Oakland Center
Fri 04:56:49 PM 38.8167 -121.6000 209° Southwest 211 243 2,200 -864 Descending Northern Cal TRACON
Fri 04:57:50 PM 38.7667 -121.6000 180° South 152 175 1,400 -744 Descending Northern Cal TRACON
Fri 04:58:50 PM 38.7333 -121.6000 180° South 133 153 700 -700 Descending Northern Cal TRACON
Fri 05:01:00 PM 38.6954 -121.5908 218° Southwest  Level Estimated
Fri 05:08:00 PM 38.6954 -121.5908 218° Southwest  Level Estimated

Login

Don't have an account? Register now (free) for customized features, flight alerts, and more!